Ruby_indah — 9VND — position and weather

sailwx.info

Track history (hours):
 
Tides and Currents Weather Stations Pressure Air Temp Water Temp Dewpoint Dewpoint Depression Visibility Wind Speed Wind Dir Waves Ship Positions

Ruby_indah

Last reported at 2015-Apr-05 00:18 UTC. Time now 2015-Apr-22 01:41 UTC.
Position N 46°18' W 125°27'.
Warning: this ship's position is 17 days out of date.

Length 229 m; draft 7.2 m.

Type: Cargo ship. MMSI: 564748000.

Date/timePositionNaut miles runAvg speedWind from/ knotsBaromVisibWave heightAir tempDewpointWater temp
2015-Apr-05 00:18N 46°18' W 125°27'7 8.9
2015-Apr-04 23:34N 46°17' W 125°17'9 9.0
2015-Apr-04 22:33N 46°17' W 125°04'9 8.9
2015-Apr-04 21:33N 46°15' W 124°51'9 9.2
2015-Apr-04 20:33N 46°14' W 124°38'9 8.6
2015-Apr-04 19:34N 46°14' W 124°26'9 8.5
2015-Apr-04 18:33N 46°12' W 124°14'7 7.1
2015-Apr-04 17:34N 46°15' W 124°05'9 8.8
2015-Apr-04 16:34N 46°11' W 123°53'10 9.8
2015-Apr-04 15:34N 46°15' W 123°40'1010.4
2015-Apr-04 14:34N 46°13' W 123°25'9 8.8
2015-Apr-04 13:33N 46°10' W 123°13'1110.7
2015-Apr-04 12:33N 46°07' W 122°59'10 9.8
2015-Apr-04 11:34N 45°59' W 122°50'1110.4
2015-Apr-04 10:32N 45°49' W 122°48'1010.5
2015-Apr-04 09:34N 45°39' W 122°44'2 1.9
2015-Apr-04 08:33N 45°38' W 122°42'0 0.0
2015-Apr-04 07:33N 45°38' W 122°42'0 0.0
2015-Apr-04 06:33N 45°38' W 122°42'0 0.0
2015-Apr-04 05:33N 45°38' W 122°42'0 0.0
2015-Apr-04 04:27N 45°38' W 122°42'0 0.0
2015-Apr-04 03:33N 45°38' W 122°42'0 0.0
2015-Apr-04 02:33N 45°38' W 122°42'0 0.0
2015-Apr-04 01:33N 45°38' W 122°42'0 0.0
2015-Apr-04 00:33N 45°38' W 122°42'0 0.0
2015-Apr-03 23:33N 45°38' W 122°42'0 0.0
2015-Apr-03 22:33N 45°38' W 122°42'0 0.0
2015-Apr-03 21:33N 45°38' W 122°42'0 0.0
2015-Apr-03 20:27N 45°38' W 122°42'0 0.0
2015-Apr-03 19:33N 45°38' W 122°42'0 0.0
2015-Apr-03 18:30N 45°38' W 122°42'0 0.0
2015-Apr-03 17:33N 45°38' W 122°42'0 0.0
2015-Apr-03 16:27N 45°38' W 122°42'0 0.0
2015-Apr-03 15:32N 45°38' W 122°42'0 0.0
2015-Apr-03 14:29N 45°38' W 122°42'0 0.0
2015-Apr-03 13:23N 45°38' W 122°42'0 0.0
2015-Apr-03 12:26N 45°38' W 122°42'0 0.0
2015-Apr-03 11:32N 45°38' W 122°42'0 0.0
2015-Apr-03 10:32N 45°38' W 122°42'0 0.0
2015-Apr-03 09:32N 45°38' W 122°42'0 0.0
2015-Apr-03 08:32N 45°38' W 122°42'0 0.0
2015-Apr-03 07:27N 45°38' W 122°42'0 0.0
2015-Apr-03 06:26N 45°38' W 122°42'0 0.0
2015-Apr-03 05:17N 45°38' W 122°42'0 0.0
2015-Apr-03 04:32N 45°38' W 122°42'0 0.0
2015-Apr-03 03:26N 45°38' W 122°42'0 0.0
2015-Apr-03 02:11N 45°38' W 122°42'0 0.0
2015-Apr-03 01:26N 45°38' W 122°42'0 0.0
2015-Apr-03 00:32N 45°38' W 122°42'0 0.0
2015-Apr-02 23:32N 45°38' W 122°42'0 0.0
2015-Apr-02 22:20N 45°38' W 122°42'0 0.0
2015-Apr-02 21:32N 45°38' W 122°42'0 0.0
2015-Apr-02 20:26N 45°38' W 122°42'0 0.0
2015-Apr-02 19:29N 45°38' W 122°42'0 0.0
2015-Apr-02 18:29N 45°38' W 122°42'0 0.0
2015-Apr-02 17:32N 45°38' W 122°42'0 0.0
2015-Apr-02 16:32N 45°38' W 122°42'0 0.0
2015-Apr-02 15:32N 45°38' W 122°42'0 0.0
2015-Apr-02 14:26N 45°38' W 122°42'0 0.0
2015-Apr-02 13:32N 45°38' W 122°42'0 0.0
2015-Apr-02 12:32N 45°38' W 122°42'0 0.0
2015-Apr-02 11:32N 45°38' W 122°42'0 0.0
2015-Apr-02 10:32N 45°38' W 122°42'0 0.0
2015-Apr-02 09:32N 45°38' W 122°42'0 0.0
2015-Apr-02 08:32N 45°38' W 122°42'0 0.0
2015-Apr-02 07:32N 45°38' W 122°42'0 0.0
2015-Apr-02 06:31N 45°38' W 122°42'0 0.0
2015-Apr-02 05:31N 45°38' W 122°42'0 0.0
2015-Apr-02 04:31N 45°38' W 122°42'0 0.0
2015-Apr-02 03:25N 45°38' W 122°42'0 0.0
2015-Apr-02 02:28N 45°38' W 122°42'0 0.0
2015-Apr-02 01:31N 45°38' W 122°42'0 0.0
2015-Apr-02 00:32N 45°38' W 122°42'5 4.8
2015-Apr-01 23:33N 45°41' W 122°47'10 9.9
2015-Apr-01 22:33N 45°51' W 122°47'1010.2
2015-Apr-01 21:33N 46°01' W 122°51'10 9.8
2015-Apr-01 20:33N 46°08' W 123°01'10 9.8
2015-Apr-01 19:33N 46°10' W 123°15'8 8.4
2015-Apr-01 18:33N 46°13' W 123°25'1010.3
2015-Apr-01 17:33N 46°15' W 123°40'7 6.7
2015-Apr-01 16:31N 46°12' W 123°49'0 0.2
2015-Apr-01 15:31N 46°12' W 123°49'0 0.0
2015-Apr-01 14:28N 46°12' W 123°49'0 0.0
2015-Apr-01 13:31N 46°12' W 123°49'0 0.0
2015-Apr-01 12:31N 46°12' W 123°49'0 0.0
2015-Apr-01 11:31N 46°12' W 123°49'0 0.0
2015-Apr-01 10:31N 46°12' W 123°49'0 0.0
2015-Apr-01 09:31N 46°12' W 123°49'0 0.1
2015-Apr-01 08:31N 46°12' W 123°49'0 0.2
2015-Apr-01 07:31N 46°12' W 123°49'0 0.1
2015-Apr-01 06:31N 46°12' W 123°49'0 0.0
2015-Apr-01 05:31N 46°12' W 123°49'0 0.1
2015-Apr-01 04:31N 46°12' W 123°49'0 0.0
2015-Apr-01 03:31N 46°12' W 123°49'0 0.2
2015-Apr-01 02:33N 46°12' W 123°49'0 0.1
2015-Apr-01 01:33N 46°12' W 123°49'0 0.0
2015-Apr-01 00:27N 46°12' W 123°49'0 0.1
2015-Mar-31 23:33N 46°12' W 123°49'0 0.1
2015-Mar-31 22:33N 46°12' W 123°49'0 0.0
2015-Mar-31 21:33N 46°12' W 123°49'0 0.0
2015-Mar-31 20:33N 46°12' W 123°49'0 0.2
2015-Mar-31 19:33N 46°12' W 123°49'0 0.1
2015-Mar-31 18:33N 46°12' W 123°49'0 0.0
2015-Mar-31 17:33N 46°12' W 123°49'0 0.1
2015-Mar-31 16:33N 46°12' W 123°49'0 0.3
2015-Mar-31 15:30N 46°12' W 123°49'0 0.1
2015-Mar-31 14:33N 46°12' W 123°49'0 0.1
2015-Mar-31 13:33N 46°12' W 123°49'0 0.0
2015-Mar-31 12:33N 46°12' W 123°49'0 0.0
2015-Mar-31 11:30N 46°12' W 123°49'0 0.0
2015-Mar-31 10:33N 46°12' W 123°49'0 0.0
2015-Mar-31 09:30N 46°12' W 123°49'0 0.1
2015-Mar-31 08:33N 46°12' W 123°49'0 0.2
2015-Mar-31 07:33N 46°12' W 123°49'0 0.1
2015-Mar-31 06:30N 46°12' W 123°49'0 0.1
2015-Mar-31 05:33N 46°12' W 123°49'0 0.0
2015-Mar-31 04:33N 46°12' W 123°49'0 0.0
2015-Mar-31 03:33N 46°12' W 123°49'0 0.2
2015-Mar-31 02:33N 46°12' W 123°49'0 0.1
2015-Mar-31 01:33N 46°12' W 123°49'0 0.0
2015-Mar-31 00:33N 46°12' W 123°49'0 0.0
2015-Mar-30 23:33N 46°12' W 123°49'0 0.0
2015-Mar-30 22:33N 46°12' W 123°49'0 0.0
2015-Mar-30 21:33N 46°12' W 123°49'0 0.0
2015-Mar-30 20:33N 46°12' W 123°49'0 0.0
2015-Mar-30 19:33N 46°12' W 123°49'0 0.1
2015-Mar-30 18:33N 46°12' W 123°49'0 0.2
2015-Mar-30 17:32N 46°12' W 123°49'0 0.0
2015-Mar-30 16:33N 46°12' W 123°49'0 0.1
2015-Mar-30 15:29N 46°12' W 123°49'0 0.1
2015-Mar-30 14:32N 46°12' W 123°49'0 0.0
2015-Mar-30 13:32N 46°12' W 123°49'0 0.0
2015-Mar-30 12:32N 46°12' W 123°49'0 0.0
2015-Mar-30 11:32N 46°12' W 123°49'0 0.0
2015-Mar-30 10:29N 46°12' W 123°49'0 0.0
2015-Mar-30 09:32N 46°12' W 123°49'0 0.0
2015-Mar-30 08:32N 46°12' W 123°49'0 0.1
2015-Mar-30 07:32N 46°12' W 123°49'0 0.2
2015-Mar-30 06:29N 46°12' W 123°49'0 0.1
2015-Mar-30 05:29N 46°12' W 123°49'0 0.0
2015-Mar-30 04:29N 46°12' W 123°49'0 0.0
2015-Mar-30 03:32N 46°12' W 123°49'0 0.2
2015-Mar-30 02:32N 46°12' W 123°49'0 0.0
2015-Mar-30 01:32N 46°12' W 123°49'0 0.0
2015-Mar-30 00:32N 46°12' W 123°49'0 0.0
2015-Mar-29 23:32N 46°12' W 123°49'0 0.0
2015-Mar-29 22:32N 46°12' W 123°49'0 0.0
2015-Mar-29 21:32N 46°12' W 123°49'0 0.0
2015-Mar-29 20:32N 46°12' W 123°49'0 0.0
2015-Mar-29 19:32N 46°12' W 123°49'0 0.0
2015-Mar-29 18:32N 46°12' W 123°49'0 0.0
2015-Mar-29 17:32N 46°12' W 123°49'0 0.2
2015-Mar-29 16:32N 46°12' W 123°49'0 0.0
2015-Mar-29 15:32N 46°12' W 123°49'0 0.2
2015-Mar-29 14:32N 46°12' W 123°49'0 0.0
2015-Mar-29 13:32N 46°12' W 123°49'0 0.0
2015-Mar-29 12:32N 46°12' W 123°49'0 0.0
2015-Mar-29 11:32N 46°12' W 123°49'0 0.0
2015-Mar-29 10:32N 46°12' W 123°49'0 0.0
2015-Mar-29 09:32N 46°12' W 123°49'0 0.0
2015-Mar-29 08:32N 46°12' W 123°49'0 0.0
2015-Mar-29 07:32N 46°12' W 123°49'0 0.0
2015-Mar-29 06:32N 46°12' W 123°49'0 0.2
2015-Mar-29 05:31N 46°12' W 123°49'0 0.1
2015-Mar-29 04:31N 46°12' W 123°49'0 0.0
2015-Mar-29 03:31N 46°12' W 123°49'0 0.1
2015-Mar-29 02:31N 46°12' W 123°49'0 0.1
2015-Mar-29 01:31N 46°12' W 123°49'0 0.2
2015-Mar-29 00:31N 46°12' W 123°49'0 0.0
2015-Mar-28 23:31N 46°12' W 123°49'0 0.0
2015-Mar-28 22:31N 46°12' W 123°49'0 0.0
2015-Mar-28 21:31N 46°12' W 123°49'0 0.0
2015-Mar-28 20:31N 46°12' W 123°49'0 0.0
2015-Mar-28 19:31N 46°12' W 123°49'0 0.0
2015-Mar-28 18:31N 46°12' W 123°49'0 0.0
2015-Mar-28 17:31N 46°12' W 123°49'0 0.0
2015-Mar-28 16:31N 46°12' W 123°49'0 0.2
2015-Mar-28 15:31N 46°12' W 123°49'0 0.0
2015-Mar-28 14:31N 46°12' W 123°49'0 0.0
2015-Mar-28 13:31N 46°12' W 123°49'0 0.2
2015-Mar-28 12:31N 46°12' W 123°49'0 0.1
2015-Mar-28 11:31N 46°12' W 123°49'0 0.0
2015-Mar-28 10:31N 46°12' W 123°49'0 0.1
2015-Mar-28 09:31N 46°12' W 123°49'0 0.0
2015-Mar-28 08:31N 46°12' W 123°49'0 0.0
2015-Mar-28 07:31N 46°12' W 123°49'0 0.0
2015-Mar-28 06:31N 46°12' W 123°49'0 0.1
2015-Mar-28 05:28N 46°12' W 123°49'0 0.2
2015-Mar-28 04:31N 46°12' W 123°49'0 0.1
2015-Mar-28 03:31N 46°12' W 123°49'0 0.0
2015-Mar-28 02:31N 46°12' W 123°49'0 0.1
2015-Mar-28 01:31N 46°12' W 123°49'0 0.0
2015-Mar-28 00:31N 46°12' W 123°49'0 0.2
2015-Mar-27 23:34N 46°12' W 123°49'0 0.1
2015-Mar-27 22:34N 46°12' W 123°49'0 0.1
2015-Mar-27 21:33N 46°12' W 123°49'0 0.0
2015-Mar-27 20:33N 46°12' W 123°49'0 0.0
2015-Mar-27 19:33N 46°12' W 123°49'0 0.0
2015-Mar-27 18:33N 46°12' W 123°49'0 0.0
2015-Mar-27 17:33N 46°12' W 123°49'0 0.0
2015-Mar-27 16:33N 46°12' W 123°49'0 0.0
2015-Mar-27 15:33N 46°12' W 123°49'0 0.2
2015-Mar-27 14:33N 46°12' W 123°49'0 0.0
2015-Mar-27 13:33N 46°12' W 123°49'0 0.0
2015-Mar-27 12:33N 46°12' W 123°49'0 0.2
2015-Mar-27 11:30N 46°12' W 123°49'0 0.1
2015-Mar-27 10:33N 46°12' W 123°49'0 0.0
2015-Mar-27 09:33N 46°12' W 123°49'0 0.0
2015-Mar-27 08:33N 46°12' W 123°49'0 0.0
2015-Mar-27 07:33N 46°12' W 123°49'0 0.0
2015-Mar-27 06:33N 46°12' W 123°49'0 0.0
2015-Mar-27 05:33N 46°12' W 123°49'0 0.0
2015-Mar-27 04:33N 46°12' W 123°49'0 0.1
2015-Mar-27 03:33N 46°12' W 123°49'0 0.2
2015-Mar-27 02:33N 46°12' W 123°49'0 0.0
2015-Mar-27 01:33N 46°12' W 123°49'0 0.0
2015-Mar-27 00:33N 46°12' W 123°49'0 0.0
2015-Mar-26 23:33N 46°12' W 123°49'0 0.2
2015-Mar-26 22:33N 46°12' W 123°49'0 0.1
2015-Mar-26 21:33N 46°12' W 123°49'0 0.0
2015-Mar-26 20:33N 46°12' W 123°49'0 0.0
2015-Mar-26 19:33N 46°12' W 123°49'0 0.0
2015-Mar-26 18:33N 46°12' W 123°49'0 0.0
2015-Mar-26 17:33N 46°12' W 123°49'0 0.0
2015-Mar-26 16:33N 46°12' W 123°49'0 0.0
2015-Mar-26 15:33N 46°12' W 123°49'0 0.0
2015-Mar-26 14:33N 46°12' W 123°49'0 0.2
2015-Mar-26 13:32N 46°12' W 123°49'0 0.1
2015-Mar-26 12:32N 46°12' W 123°49'0 0.0
2015-Mar-26 11:32N 46°12' W 123°49'0 0.1
2015-Mar-26 10:32N 46°12' W 123°49'0 0.2
2015-Mar-26 09:29N 46°12' W 123°49'0 0.1
2015-Mar-26 08:32N 46°12' W 123°49'0 0.0
2015-Mar-26 07:32N 46°12' W 123°49'0 0.0
2015-Mar-26 06:32N 46°12' W 123°49'0 0.0
2015-Mar-26 05:32N 46°12' W 123°49'0 0.0
2015-Mar-26 04:32N 46°12' W 123°49'0 0.0
2015-Mar-26 03:32N 46°12' W 123°49'0 0.2
2015-Mar-26 02:32N 46°12' W 123°49'0 0.1
2015-Mar-26 01:32N 46°12' W 123°49'0 0.0
2015-Mar-26 00:32N 46°12' W 123°49'  
Track history (hours):
 
Tides and Currents Weather Stations Pressure Air Temp Water Temp Dewpoint Dewpoint Depression Visibility Wind Speed Wind Dir Waves Ship Positions

Ruby_indah

Last reported at 2015-Apr-05 00:18 UTC. Time now 2015-Apr-22 01:41 UTC.
Position N 46°18' W 125°27'.
Warning: this ship's position is 17 days out of date.

Length 229 m; draft 7.2 m.

Type: Cargo ship. MMSI: 564748000.

Date/timePositionNaut miles runAvg speedWind from/ knotsBaromVisibWave heightAir tempDewpointWater temp
2015-Apr-05 00:18N 46°18' W 125°27'7 8.9
2015-Apr-04 23:34N 46°17' W 125°17'9 9.0
2015-Apr-04 22:33N 46°17' W 125°04'9 8.9
2015-Apr-04 21:33N 46°15' W 124°51'9 9.2
2015-Apr-04 20:33N 46°14' W 124°38'9 8.6
2015-Apr-04 19:34N 46°14' W 124°26'9 8.5
2015-Apr-04 18:33N 46°12' W 124°14'7 7.1
2015-Apr-04 17:34N 46°15' W 124°05'9 8.8
2015-Apr-04 16:34N 46°11' W 123°53'10 9.8
2015-Apr-04 15:34N 46°15' W 123°40'1010.4
2015-Apr-04 14:34N 46°13' W 123°25'9 8.8
2015-Apr-04 13:33N 46°10' W 123°13'1110.7
2015-Apr-04 12:33N 46°07' W 122°59'10 9.8
2015-Apr-04 11:34N 45°59' W 122°50'1110.4
2015-Apr-04 10:32N 45°49' W 122°48'1010.5
2015-Apr-04 09:34N 45°39' W 122°44'2 1.9
2015-Apr-04 08:33N 45°38' W 122°42'0 0.0
2015-Apr-04 07:33N 45°38' W 122°42'0 0.0
2015-Apr-04 06:33N 45°38' W 122°42'0 0.0
2015-Apr-04 05:33N 45°38' W 122°42'0 0.0
2015-Apr-04 04:27N 45°38' W 122°42'0 0.0
2015-Apr-04 03:33N 45°38' W 122°42'0 0.0
2015-Apr-04 02:33N 45°38' W 122°42'0 0.0
2015-Apr-04 01:33N 45°38' W 122°42'0 0.0
2015-Apr-04 00:33N 45°38' W 122°42'0 0.0
2015-Apr-03 23:33N 45°38' W 122°42'0 0.0
2015-Apr-03 22:33N 45°38' W 122°42'0 0.0
2015-Apr-03 21:33N 45°38' W 122°42'0 0.0
2015-Apr-03 20:27N 45°38' W 122°42'0 0.0
2015-Apr-03 19:33N 45°38' W 122°42'0 0.0
2015-Apr-03 18:30N 45°38' W 122°42'0 0.0
2015-Apr-03 17:33N 45°38' W 122°42'0 0.0
2015-Apr-03 16:27N 45°38' W 122°42'0 0.0
2015-Apr-03 15:32N 45°38' W 122°42'0 0.0
2015-Apr-03 14:29N 45°38' W 122°42'0 0.0
2015-Apr-03 13:23N 45°38' W 122°42'0 0.0
2015-Apr-03 12:26N 45°38' W 122°42'0 0.0
2015-Apr-03 11:32N 45°38' W 122°42'0 0.0
2015-Apr-03 10:32N 45°38' W 122°42'0 0.0
2015-Apr-03 09:32N 45°38' W 122°42'0 0.0
2015-Apr-03 08:32N 45°38' W 122°42'0 0.0
2015-Apr-03 07:27N 45°38' W 122°42'0 0.0
2015-Apr-03 06:26N 45°38' W 122°42'0 0.0
2015-Apr-03 05:17N 45°38' W 122°42'0 0.0
2015-Apr-03 04:32N 45°38' W 122°42'0 0.0
2015-Apr-03 03:26N 45°38' W 122°42'0 0.0
2015-Apr-03 02:11N 45°38' W 122°42'0 0.0
2015-Apr-03 01:26N 45°38' W 122°42'0 0.0
2015-Apr-03 00:32N 45°38' W 122°42'0 0.0
2015-Apr-02 23:32N 45°38' W 122°42'0 0.0
2015-Apr-02 22:20N 45°38' W 122°42'0 0.0
2015-Apr-02 21:32N 45°38' W 122°42'0 0.0
2015-Apr-02 20:26N 45°38' W 122°42'0 0.0
2015-Apr-02 19:29N 45°38' W 122°42'0 0.0
2015-Apr-02 18:29N 45°38' W 122°42'0 0.0
2015-Apr-02 17:32N 45°38' W 122°42'0 0.0
2015-Apr-02 16:32N 45°38' W 122°42'0 0.0
2015-Apr-02 15:32N 45°38' W 122°42'0 0.0
2015-Apr-02 14:26N 45°38' W 122°42'0 0.0
2015-Apr-02 13:32N 45°38' W 122°42'0 0.0
2015-Apr-02 12:32N 45°38' W 122°42'0 0.0
2015-Apr-02 11:32N 45°38' W 122°42'0 0.0
2015-Apr-02 10:32N 45°38' W 122°42'0 0.0
2015-Apr-02 09:32N 45°38' W 122°42'0 0.0
2015-Apr-02 08:32N 45°38' W 122°42'0 0.0
2015-Apr-02 07:32N 45°38' W 122°42'0 0.0
2015-Apr-02 06:31N 45°38' W 122°42'0 0.0
2015-Apr-02 05:31N 45°38' W 122°42'0 0.0
2015-Apr-02 04:31N 45°38' W 122°42'0 0.0
2015-Apr-02 03:25N 45°38' W 122°42'0 0.0
2015-Apr-02 02:28N 45°38' W 122°42'0 0.0
2015-Apr-02 01:31N 45°38' W 122°42'0 0.0
2015-Apr-02 00:32N 45°38' W 122°42'5 4.8
2015-Apr-01 23:33N 45°41' W 122°47'10 9.9
2015-Apr-01 22:33N 45°51' W 122°47'1010.2
2015-Apr-01 21:33N 46°01' W 122°51'10 9.8
2015-Apr-01 20:33N 46°08' W 123°01'10 9.8
2015-Apr-01 19:33N 46°10' W 123°15'8 8.4
2015-Apr-01 18:33N 46°13' W 123°25'1010.3
2015-Apr-01 17:33N 46°15' W 123°40'7 6.7
2015-Apr-01 16:31N 46°12' W 123°49'0 0.2
2015-Apr-01 15:31N 46°12' W 123°49'0 0.0
2015-Apr-01 14:28N 46°12' W 123°49'0 0.0
2015-Apr-01 13:31N 46°12' W 123°49'0 0.0
2015-Apr-01 12:31N 46°12' W 123°49'0 0.0
2015-Apr-01 11:31N 46°12' W 123°49'0 0.0
2015-Apr-01 10:31N 46°12' W 123°49'0 0.0
2015-Apr-01 09:31N 46°12' W 123°49'0 0.1
2015-Apr-01 08:31N 46°12' W 123°49'0 0.2
2015-Apr-01 07:31N 46°12' W 123°49'0 0.1
2015-Apr-01 06:31N 46°12' W 123°49'0 0.0
2015-Apr-01 05:31N 46°12' W 123°49'0 0.1
2015-Apr-01 04:31N 46°12' W 123°49'0 0.0
2015-Apr-01 03:31N 46°12' W 123°49'0 0.2
2015-Apr-01 02:33N 46°12' W 123°49'0 0.1
2015-Apr-01 01:33N 46°12' W 123°49'0 0.0
2015-Apr-01 00:27N 46°12' W 123°49'0 0.1
2015-Mar-31 23:33N 46°12' W 123°49'0 0.1
2015-Mar-31 22:33N 46°12' W 123°49'0 0.0
2015-Mar-31 21:33N 46°12' W 123°49'0 0.0
2015-Mar-31 20:33N 46°12' W 123°49'0 0.2
2015-Mar-31 19:33N 46°12' W 123°49'0 0.1
2015-Mar-31 18:33N 46°12' W 123°49'0 0.0
2015-Mar-31 17:33N 46°12' W 123°49'0 0.1
2015-Mar-31 16:33N 46°12' W 123°49'0 0.3
2015-Mar-31 15:30N 46°12' W 123°49'0 0.1
2015-Mar-31 14:33N 46°12' W 123°49'0 0.1
2015-Mar-31 13:33N 46°12' W 123°49'0 0.0
2015-Mar-31 12:33N 46°12' W 123°49'0 0.0
2015-Mar-31 11:30N 46°12' W 123°49'0 0.0
2015-Mar-31 10:33N 46°12' W 123°49'0 0.0
2015-Mar-31 09:30N 46°12' W 123°49'0 0.1
2015-Mar-31 08:33N 46°12' W 123°49'0 0.2
2015-Mar-31 07:33N 46°12' W 123°49'0 0.1
2015-Mar-31 06:30N 46°12' W 123°49'0 0.1
2015-Mar-31 05:33N 46°12' W 123°49'0 0.0
2015-Mar-31 04:33N 46°12' W 123°49'0 0.0
2015-Mar-31 03:33N 46°12' W 123°49'0 0.2
2015-Mar-31 02:33N 46°12' W 123°49'0 0.1
2015-Mar-31 01:33N 46°12' W 123°49'0 0.0
2015-Mar-31 00:33N 46°12' W 123°49'0 0.0
2015-Mar-30 23:33N 46°12' W 123°49'0 0.0
2015-Mar-30 22:33N 46°12' W 123°49'0 0.0
2015-Mar-30 21:33N 46°12' W 123°49'0 0.0
2015-Mar-30 20:33N 46°12' W 123°49'0 0.0
2015-Mar-30 19:33N 46°12' W 123°49'0 0.1
2015-Mar-30 18:33N 46°12' W 123°49'0 0.2
2015-Mar-30 17:32N 46°12' W 123°49'0 0.0
2015-Mar-30 16:33N 46°12' W 123°49'0 0.1
2015-Mar-30 15:29N 46°12' W 123°49'0 0.1
2015-Mar-30 14:32N 46°12' W 123°49'0 0.0
2015-Mar-30 13:32N 46°12' W 123°49'0 0.0
2015-Mar-30 12:32N 46°12' W 123°49'0 0.0
2015-Mar-30 11:32N 46°12' W 123°49'0 0.0
2015-Mar-30 10:29N 46°12' W 123°49'0 0.0
2015-Mar-30 09:32N 46°12' W 123°49'0 0.0
2015-Mar-30 08:32N 46°12' W 123°49'0 0.1
2015-Mar-30 07:32N 46°12' W 123°49'0 0.2
2015-Mar-30 06:29N 46°12' W 123°49'0 0.1
2015-Mar-30 05:29N 46°12' W 123°49'0 0.0
2015-Mar-30 04:29N 46°12' W 123°49'0 0.0
2015-Mar-30 03:32N 46°12' W 123°49'0 0.2
2015-Mar-30 02:32N 46°12' W 123°49'0 0.0
2015-Mar-30 01:32N 46°12' W 123°49'0 0.0
2015-Mar-30 00:32N 46°12' W 123°49'0 0.0
2015-Mar-29 23:32N 46°12' W 123°49'0 0.0
2015-Mar-29 22:32N 46°12' W 123°49'0 0.0
2015-Mar-29 21:32N 46°12' W 123°49'0 0.0
2015-Mar-29 20:32N 46°12' W 123°49'0 0.0
2015-Mar-29 19:32N 46°12' W 123°49'0 0.0
2015-Mar-29 18:32N 46°12' W 123°49'0 0.0
2015-Mar-29 17:32N 46°12' W 123°49'0 0.2
2015-Mar-29 16:32N 46°12' W 123°49'0 0.0
2015-Mar-29 15:32N 46°12' W 123°49'0 0.2
2015-Mar-29 14:32N 46°12' W 123°49'0 0.0
2015-Mar-29 13:32N 46°12' W 123°49'0 0.0
2015-Mar-29 12:32N 46°12' W 123°49'0 0.0
2015-Mar-29 11:32N 46°12' W 123°49'0 0.0
2015-Mar-29 10:32N 46°12' W 123°49'0 0.0
2015-Mar-29 09:32N 46°12' W 123°49'0 0.0
2015-Mar-29 08:32N 46°12' W 123°49'0 0.0
2015-Mar-29 07:32N 46°12' W 123°49'0 0.0
2015-Mar-29 06:32N 46°12' W 123°49'0 0.2
2015-Mar-29 05:31N 46°12' W 123°49'0 0.1
2015-Mar-29 04:31N 46°12' W 123°49'0 0.0
2015-Mar-29 03:31N 46°12' W 123°49'0 0.1
2015-Mar-29 02:31N 46°12' W 123°49'0 0.1
2015-Mar-29 01:31N 46°12' W 123°49'0 0.2
2015-Mar-29 00:31N 46°12' W 123°49'0 0.0
2015-Mar-28 23:31N 46°12' W 123°49'0 0.0
2015-Mar-28 22:31N 46°12' W 123°49'0 0.0
2015-Mar-28 21:31N 46°12' W 123°49'0 0.0
2015-Mar-28 20:31N 46°12' W 123°49'0 0.0
2015-Mar-28 19:31N 46°12' W 123°49'0 0.0
2015-Mar-28 18:31N 46°12' W 123°49'0 0.0
2015-Mar-28 17:31N 46°12' W 123°49'0 0.0
2015-Mar-28 16:31N 46°12' W 123°49'0 0.2
2015-Mar-28 15:31N 46°12' W 123°49'0 0.0
2015-Mar-28 14:31N 46°12' W 123°49'0 0.0
2015-Mar-28 13:31N 46°12' W 123°49'0 0.2
2015-Mar-28 12:31N 46°12' W 123°49'0 0.1
2015-Mar-28 11:31N 46°12' W 123°49'0 0.0
2015-Mar-28 10:31N 46°12' W 123°49'0 0.1
2015-Mar-28 09:31N 46°12' W 123°49'0 0.0
2015-Mar-28 08:31N 46°12' W 123°49'0 0.0
2015-Mar-28 07:31N 46°12' W 123°49'0 0.0
2015-Mar-28 06:31N 46°12' W 123°49'0 0.1
2015-Mar-28 05:28N 46°12' W 123°49'0 0.2
2015-Mar-28 04:31N 46°12' W 123°49'0 0.1
2015-Mar-28 03:31N 46°12' W 123°49'0 0.0
2015-Mar-28 02:31N 46°12' W 123°49'0 0.1
2015-Mar-28 01:31N 46°12' W 123°49'0 0.0
2015-Mar-28 00:31N 46°12' W 123°49'0 0.2
2015-Mar-27 23:34N 46°12' W 123°49'0 0.1
2015-Mar-27 22:34N 46°12' W 123°49'0 0.1
2015-Mar-27 21:33N 46°12' W 123°49'0 0.0
2015-Mar-27 20:33N 46°12' W 123°49'0 0.0
2015-Mar-27 19:33N 46°12' W 123°49'0 0.0
2015-Mar-27 18:33N 46°12' W 123°49'0 0.0
2015-Mar-27 17:33N 46°12' W 123°49'0 0.0
2015-Mar-27 16:33N 46°12' W 123°49'0 0.0
2015-Mar-27 15:33N 46°12' W 123°49'0 0.2
2015-Mar-27 14:33N 46°12' W 123°49'0 0.0
2015-Mar-27 13:33N 46°12' W 123°49'0 0.0
2015-Mar-27 12:33N 46°12' W 123°49'0 0.2
2015-Mar-27 11:30N 46°12' W 123°49'0 0.1
2015-Mar-27 10:33N 46°12' W 123°49'0 0.0
2015-Mar-27 09:33N 46°12' W 123°49'0 0.0
2015-Mar-27 08:33N 46°12' W 123°49'0 0.0
2015-Mar-27 07:33N 46°12' W 123°49'0 0.0
2015-Mar-27 06:33N 46°12' W 123°49'0 0.0
2015-Mar-27 05:33N 46°12' W 123°49'0 0.0
2015-Mar-27 04:33N 46°12' W 123°49'0 0.1
2015-Mar-27 03:33N 46°12' W 123°49'0 0.2
2015-Mar-27 02:33N 46°12' W 123°49'0 0.0
2015-Mar-27 01:33N 46°12' W 123°49'0 0.0
2015-Mar-27 00:33N 46°12' W 123°49'0 0.0
2015-Mar-26 23:33N 46°12' W 123°49'0 0.2
2015-Mar-26 22:33N 46°12' W 123°49'0 0.1
2015-Mar-26 21:33N 46°12' W 123°49'0 0.0
2015-Mar-26 20:33N 46°12' W 123°49'0 0.0
2015-Mar-26 19:33N 46°12' W 123°49'0 0.0
2015-Mar-26 18:33N 46°12' W 123°49'0 0.0
2015-Mar-26 17:33N 46°12' W 123°49'0 0.0
2015-Mar-26 16:33N 46°12' W 123°49'0 0.0
2015-Mar-26 15:33N 46°12' W 123°49'0 0.0
2015-Mar-26 14:33N 46°12' W 123°49'0 0.2
2015-Mar-26 13:32N 46°12' W 123°49'0 0.1
2015-Mar-26 12:32N 46°12' W 123°49'0 0.0
2015-Mar-26 11:32N 46°12' W 123°49'0 0.1
2015-Mar-26 10:32N 46°12' W 123°49'0 0.2
2015-Mar-26 09:29N 46°12' W 123°49'0 0.1
2015-Mar-26 08:32N 46°12' W 123°49'0 0.0
2015-Mar-26 07:32N 46°12' W 123°49'0 0.0
2015-Mar-26 06:32N 46°12' W 123°49'0 0.0
2015-Mar-26 05:32N 46°12' W 123°49'0 0.0
2015-Mar-26 04:32N 46°12' W 123°49'0 0.0
2015-Mar-26 03:32N 46°12' W 123°49'0 0.2
2015-Mar-26 02:32N 46°12' W 123°49'0 0.1
2015-Mar-26 01:32N 46°12' W 123°49'0 0.0
2015-Mar-26 00:32N 46°12' W 123°49'  

Dump ship's entire track history